createdAt,value
2022-11-10T00:02:13.696Z,50.50
2022-11-10T00:04:59.335Z,50.50
2022-11-10T00:07:44.517Z,50.50
2022-11-10T00:10:30.628Z,50.50
2022-11-10T00:13:15.659Z,50.50
2022-11-10T00:16:22.145Z,50.50
2022-11-10T00:19:07.500Z,50.50
2022-11-10T00:21:53.070Z,50.50
2022-11-10T00:24:38.480Z,51.00
2022-11-10T00:27:23.956Z,50.50
2022-11-10T00:30:09.657Z,50.60
2022-11-10T00:32:54.720Z,50.60
2022-11-10T00:35:40.026Z,50.60
2022-11-10T00:38:25.448Z,50.60
2022-11-10T00:41:10.903Z,50.60
2022-11-10T00:43:56.160Z,50.80
2022-11-10T00:46:41.604Z,50.60
2022-11-10T00:49:27.370Z,50.60
2022-11-10T00:52:12.593Z,50.70
2022-11-10T00:54:58.176Z,50.80
2022-11-10T00:57:43.334Z,50.80
2022-11-10T01:00:28.777Z,50.90
2022-11-10T01:03:16.105Z,51.00
2022-11-10T01:06:10.946Z,50.90
2022-11-10T01:08:55.976Z,51.10
2022-11-10T01:11:41.614Z,51.10
2022-11-10T01:14:26.584Z,50.90
2022-11-10T01:17:12.080Z,51.00
2022-11-10T01:19:57.364Z,51.00
2022-11-10T01:22:43.016Z,51.40
2022-11-10T01:25:28.343Z,51.10
2022-11-10T01:28:13.788Z,51.00
2022-11-10T01:31:06.025Z,51.00
2022-11-10T01:33:51.881Z,51.00
2022-11-10T01:36:37.337Z,51.00
2022-11-10T01:39:22.738Z,51.60
2022-11-10T01:42:08.136Z,51.30
2022-11-10T01:45:24.445Z,51.30
2022-11-10T01:48:14.569Z,51.40
2022-11-10T01:51:12.189Z,51.30
2022-11-10T01:54:01.606Z,51.40
2022-11-10T01:56:51.646Z,51.30
2022-11-10T01:59:42.660Z,51.40
2022-11-10T02:02:49.605Z,51.50
2022-11-10T02:05:36.148Z,51.70
2022-11-10T02:08:22.156Z,51.40
2022-11-10T02:11:07.550Z,51.40
2022-11-10T02:13:53.964Z,51.50
2022-11-10T02:16:39.913Z,51.70
2022-11-10T02:19:26.317Z,51.90
2022-11-10T02:22:11.382Z,51.90
2022-11-10T02:24:57.460Z,51.70
2022-11-10T02:27:42.828Z,51.80
2022-11-10T02:30:28.308Z,51.70
2022-11-10T02:33:13.695Z,51.90
2022-11-10T02:35:59.250Z,51.80
2022-11-10T02:38:44.759Z,51.80
2022-11-10T02:41:30.165Z,52.00
2022-11-10T02:44:15.584Z,51.80
2022-11-10T02:47:00.865Z,51.80
2022-11-10T02:49:46.338Z,51.80
2022-11-10T02:52:31.863Z,51.90
2022-11-10T02:55:17.471Z,52.10
2022-11-10T02:58:03.542Z,51.90
2022-11-10T03:00:48.954Z,52.30
2022-11-10T03:03:34.189Z,51.80
2022-11-10T03:06:19.485Z,52.00
2022-11-10T03:09:05.076Z,51.90
2022-11-10T03:11:50.470Z,51.90
2022-11-10T03:14:35.856Z,51.90
2022-11-10T03:17:21.260Z,51.90
2022-11-10T03:20:07.183Z,51.90
2022-11-10T03:22:52.955Z,51.90
2022-11-10T03:25:38.539Z,52.00
2022-11-10T03:28:24.520Z,52.10
2022-11-10T03:31:09.669Z,52.10
2022-11-10T03:33:55.193Z,52.00
2022-11-10T03:36:40.721Z,52.00
2022-11-10T03:39:25.930Z,52.00
2022-11-10T03:42:11.411Z,52.00
2022-11-10T03:44:56.687Z,52.10
2022-11-10T03:47:46.550Z,52.20
2022-11-10T03:50:31.721Z,52.10
2022-11-10T03:53:18.089Z,52.00
2022-11-10T03:56:05.182Z,52.30
2022-11-10T03:58:50.605Z,52.20
2022-11-10T04:01:36.063Z,52.50
2022-11-10T04:04:40.732Z,52.20
2022-11-10T04:07:44.771Z,52.30
2022-11-10T04:10:30.277Z,52.40
2022-11-10T04:13:33.991Z,52.40
2022-11-10T04:16:19.519Z,52.40
2022-11-10T04:19:05.018Z,52.30
2022-11-10T04:21:50.676Z,52.40
2022-11-10T04:24:35.907Z,52.40
2022-11-10T04:27:21.197Z,52.40
2022-11-10T04:30:06.950Z,52.40
2022-11-10T04:32:53.891Z,52.50
2022-11-10T04:35:39.389Z,52.70
2022-11-10T04:38:24.906Z,52.50
2022-11-10T04:41:11.317Z,52.40
2022-11-10T04:43:57.866Z,52.60
2022-11-10T04:46:44.104Z,52.60
2022-11-10T04:49:29.457Z,52.60
2022-11-10T04:52:14.456Z,52.50
2022-11-10T04:55:00.915Z,52.50
2022-11-10T04:57:47.043Z,53.00
2022-11-10T05:00:35.276Z,52.50
2022-11-10T05:03:21.832Z,52.60
2022-11-10T05:06:10.269Z,52.60
2022-11-10T05:08:55.422Z,52.60
2022-11-10T05:11:41.165Z,52.60
2022-11-10T05:14:26.265Z,52.60
2022-11-10T05:17:11.648Z,52.50
2022-11-10T05:19:57.032Z,52.60
2022-11-10T05:22:49.050Z,52.60
2022-11-10T05:25:36.369Z,52.50
2022-11-10T05:28:21.635Z,52.70
2022-11-10T05:31:07.720Z,52.60
2022-11-10T05:33:53.127Z,52.60
2022-11-10T05:36:38.584Z,52.50
2022-11-10T05:39:23.944Z,52.50
2022-11-10T05:42:09.356Z,52.50
2022-11-10T05:44:54.780Z,53.00
2022-11-10T05:47:40.421Z,52.50
2022-11-10T05:50:25.914Z,52.50
2022-11-10T05:53:11.563Z,52.60
2022-11-10T05:55:56.755Z,52.50
2022-11-10T05:58:42.200Z,52.70
2022-11-10T06:01:27.455Z,52.90
2022-11-10T06:04:12.657Z,52.60
2022-11-10T06:06:58.051Z,52.50
2022-11-10T06:09:43.431Z,52.50
2022-11-10T06:12:30.220Z,52.50
2022-11-10T06:15:16.164Z,52.60
2022-11-10T06:18:02.072Z,52.90
2022-11-10T06:20:48.009Z,52.80
2022-11-10T06:23:33.117Z,53.00
2022-11-10T06:26:18.733Z,53.00
2022-11-10T06:29:04.327Z,53.00
2022-11-10T06:31:49.736Z,53.00
2022-11-10T06:34:35.080Z,53.10
2022-11-10T06:37:20.467Z,53.10
2022-11-10T06:40:07.691Z,53.20
2022-11-10T06:42:53.893Z,53.20
2022-11-10T06:45:39.281Z,53.40
2022-11-10T06:48:24.641Z,53.10
2022-11-10T06:51:10.149Z,53.40
2022-11-10T06:53:55.635Z,53.90
2022-11-10T06:56:41.117Z,53.40
2022-11-10T06:59:26.367Z,53.40
2022-11-10T07:02:15.693Z,53.40
2022-11-10T07:05:00.825Z,53.60
2022-11-10T07:07:46.314Z,53.70
2022-11-10T07:10:32.364Z,53.60
2022-11-10T07:13:17.608Z,53.70
2022-11-10T07:16:08.232Z,53.70
2022-11-10T07:18:53.592Z,53.70
2022-11-10T07:21:39.018Z,53.80
2022-11-10T07:24:24.386Z,53.60
2022-11-10T07:27:09.781Z,53.60
2022-11-10T07:29:54.820Z,53.70
2022-11-10T07:32:40.364Z,54.20
2022-11-10T07:35:28.268Z,53.60
2022-11-10T07:38:14.751Z,53.60
2022-11-10T07:40:59.882Z,53.50
2022-11-10T07:43:45.166Z,53.50
2022-11-10T07:46:30.629Z,53.40
2022-11-10T07:49:15.943Z,53.90
2022-11-10T07:52:01.579Z,53.40
2022-11-10T07:54:46.677Z,53.40
2022-11-10T07:57:33.078Z,53.50
2022-11-10T08:00:18.853Z,53.50
2022-11-10T08:03:05.133Z,53.40
2022-11-10T08:05:50.269Z,53.50
2022-11-10T08:08:36.753Z,53.50
2022-11-10T08:11:22.097Z,53.50
2022-11-10T08:14:07.587Z,53.70
2022-11-10T08:16:52.959Z,53.70
2022-11-10T08:19:38.207Z,53.80
2022-11-10T08:22:23.480Z,53.90
2022-11-10T08:25:09.052Z,53.90
2022-11-10T08:28:02.821Z,53.90
2022-11-10T08:30:49.461Z,54.00
2022-11-10T08:33:34.871Z,54.00
2022-11-10T08:36:20.482Z,54.10
2022-11-10T08:39:06.326Z,54.70
2022-11-10T08:41:51.695Z,55.70
2022-11-10T08:44:37.157Z,56.50
2022-11-10T08:47:22.777Z,57.20
2022-11-10T08:50:08.656Z,58.00
2022-11-10T08:52:54.485Z,58.60
2022-11-10T08:55:40.542Z,58.70
2022-11-10T08:58:26.162Z,57.70
2022-11-10T09:01:12.075Z,56.90
2022-11-10T09:03:57.422Z,55.80
2022-11-10T09:06:42.859Z,54.30
2022-11-10T09:09:28.269Z,52.10
2022-11-10T09:12:13.584Z,52.30
2022-11-10T09:14:58.827Z,49.30
2022-11-10T09:17:45.273Z,48.50
2022-11-10T09:20:32.931Z,47.80
2022-11-10T09:23:19.725Z,47.20
2022-11-10T09:26:07.640Z,47.30
2022-11-10T09:28:52.996Z,46.60
2022-11-10T09:31:38.011Z,46.10
2022-11-10T09:34:23.343Z,45.40
2022-11-10T09:37:09.260Z,44.60
2022-11-10T09:39:55.790Z,44.20
2022-11-10T09:42:43.478Z,44.20
2022-11-10T09:45:39.344Z,43.90
2022-11-10T09:48:38.960Z,44.00
2022-11-10T09:51:28.321Z,44.20
2022-11-10T09:54:39.140Z,44.70
2022-11-10T09:57:26.648Z,44.40
2022-11-10T10:00:17.997Z,44.70
2022-11-10T10:03:05.355Z,44.70
2022-11-10T10:05:57.863Z,45.30
2022-11-10T10:09:12.440Z,45.80
2022-11-10T10:12:08.087Z,46.10
2022-11-10T10:15:35.213Z,47.70
2022-11-10T10:18:25.637Z,47.00
2022-11-10T10:21:42.904Z,48.80
2022-11-10T10:24:30.225Z,47.00
2022-11-10T10:27:26.911Z,48.30
2022-11-10T10:30:15.107Z,45.10
2022-11-10T10:33:16.312Z,45.60
2022-11-10T10:36:14.403Z,42.90
2022-11-10T10:39:12.258Z,42.20
2022-11-10T10:41:58.563Z,42.70
2022-11-10T10:45:22.671Z,43.70
2022-11-10T10:48:25.093Z,42.20
2022-11-10T10:51:12.415Z,39.80
2022-11-10T10:53:57.888Z,41.80
2022-11-10T10:56:43.041Z,41.20
2022-11-10T10:59:28.609Z,41.20
2022-11-10T11:02:28.225Z,40.60
2022-11-10T11:05:17.647Z,39.50
2022-11-10T11:08:03.057Z,40.70
2022-11-10T11:10:48.478Z,40.30
2022-11-10T11:13:33.917Z,39.00
2022-11-10T11:16:19.553Z,38.80
2022-11-10T11:19:05.129Z,37.90
2022-11-10T11:22:09.809Z,38.40
2022-11-10T11:25:20.025Z,36.90
2022-11-10T11:28:38.780Z,37.40
2022-11-10T11:31:51.633Z,37.20
2022-11-10T11:34:47.331Z,37.30
2022-11-10T11:38:06.284Z,37.10
2022-11-10T11:40:57.104Z,36.90
2022-11-10T11:44:13.591Z,37.40
2022-11-10T11:47:48.735Z,35.90
2022-11-10T11:50:44.756Z,36.40
2022-11-10T11:53:50.963Z,35.90
2022-11-10T11:56:41.429Z,36.80
2022-11-10T11:59:48.066Z,36.60
2022-11-10T12:02:39.105Z,36.50
2022-11-10T12:05:45.916Z,36.80
2022-11-10T12:08:40.617Z,35.70
2022-11-10T12:11:48.450Z,35.60
2022-11-10T12:14:52.244Z,36.10
2022-11-10T12:17:58.165Z,34.50
2022-11-10T12:20:59.470Z,34.00
2022-11-10T12:24:15.459Z,34.40
2022-11-10T12:27:22.762Z,34.10
2022-11-10T12:30:14.000Z,34.70
2022-11-10T12:33:05.165Z,34.70
2022-11-10T12:35:53.730Z,35.10
2022-11-10T12:39:00.689Z,35.30
2022-11-10T12:41:51.265Z,34.90
2022-11-10T12:45:00.324Z,35.10
2022-11-10T12:47:47.131Z,34.20
2022-11-10T12:50:51.461Z,34.60
2022-11-10T12:53:41.865Z,34.40
2022-11-10T12:56:37.612Z,34.80
2022-11-10T12:59:30.566Z,35.00
2022-11-10T13:02:42.931Z,34.50
2022-11-10T13:05:41.882Z,34.50
2022-11-10T13:08:33.053Z,34.80
2022-11-10T13:11:18.039Z,35.10
2022-11-10T13:14:05.295Z,34.90
2022-11-10T13:16:54.030Z,34.80
2022-11-10T13:19:39.532Z,34.90
2022-11-10T13:22:40.658Z,35.10
2022-11-10T13:25:37.883Z,35.00
2022-11-10T13:28:56.642Z,34.50
2022-11-10T13:31:51.121Z,34.40
2022-11-10T13:34:38.535Z,34.50
2022-11-10T13:37:29.837Z,35.00
2022-11-10T13:40:24.372Z,34.90
2022-11-10T13:43:23.819Z,34.90
2022-11-10T13:46:09.158Z,34.70
2022-11-10T13:49:31.734Z,34.70
2022-11-10T13:52:40.780Z,34.70
2022-11-10T13:55:55.232Z,34.60
2022-11-10T13:58:43.333Z,34.40
2022-11-10T14:01:30.344Z,34.70
2022-11-10T14:04:42.328Z,34.80
2022-11-10T14:07:38.382Z,34.40
2022-11-10T14:10:51.851Z,34.40
2022-11-10T14:13:45.441Z,34.30
2022-11-10T14:16:32.544Z,34.50
2022-11-10T14:19:28.072Z,34.60
2022-11-10T14:22:34.499Z,34.60
2022-11-10T14:25:34.787Z,34.30
2022-11-10T14:28:32.621Z,34.30
2022-11-10T14:31:22.193Z,34.40
2022-11-10T14:34:15.421Z,34.60
2022-11-10T14:37:03.090Z,34.50
2022-11-10T14:39:51.401Z,34.50
2022-11-10T14:42:38.694Z,34.50
2022-11-10T14:45:26.117Z,34.70
2022-11-10T14:48:20.187Z,34.90
2022-11-10T14:51:14.337Z,35.20
2022-11-10T14:53:59.776Z,35.50
2022-11-10T14:56:44.954Z,35.50
2022-11-10T14:59:31.088Z,35.70
2022-11-10T15:02:18.579Z,36.00
2022-11-10T15:05:03.993Z,36.30
2022-11-10T15:07:53.752Z,36.50
2022-11-10T15:10:39.370Z,36.70
2022-11-10T15:13:28.087Z,37.10
2022-11-10T15:16:29.613Z,37.20
2022-11-10T15:19:21.358Z,37.60
2022-11-10T15:22:33.902Z,37.70
2022-11-10T15:25:22.066Z,38.20
2022-11-10T15:28:13.334Z,37.80
2022-11-10T15:31:02.969Z,38.10
2022-11-10T15:33:51.146Z,38.10
2022-11-10T15:36:40.964Z,38.40
2022-11-10T15:39:27.450Z,38.50
2022-11-10T15:42:33.065Z,38.70
2022-11-10T15:45:18.733Z,38.90
2022-11-10T15:48:05.320Z,39.00
2022-11-10T15:50:54.571Z,39.30
2022-11-10T15:53:45.606Z,39.50
2022-11-10T15:56:30.819Z,39.80
2022-11-10T15:59:16.307Z,39.70
2022-11-10T16:02:01.721Z,39.90
2022-11-10T16:04:48.888Z,40.50
2022-11-10T16:07:33.844Z,40.10
2022-11-10T16:10:19.361Z,40.20
2022-11-10T16:13:04.844Z,40.40
2022-11-10T16:15:50.755Z,40.60
2022-11-10T16:18:39.976Z,40.80
2022-11-10T16:21:28.550Z,41.20
2022-11-10T16:24:14.163Z,41.20
2022-11-10T16:26:59.704Z,41.20
2022-11-10T16:29:45.197Z,41.40
2022-11-10T16:32:30.581Z,41.50
2022-11-10T16:35:16.000Z,41.60
2022-11-10T16:38:01.729Z,41.80
2022-11-10T16:40:53.142Z,41.90
2022-11-10T16:43:38.629Z,42.30
2022-11-10T16:46:26.583Z,42.30
2022-11-10T16:49:26.853Z,42.70
2022-11-10T16:52:15.248Z,43.40
2022-11-10T16:55:00.230Z,42.90
2022-11-10T16:57:45.835Z,42.70
2022-11-10T17:00:32.303Z,43.00
2022-11-10T17:03:23.944Z,43.00
2022-11-10T17:06:13.522Z,43.40
2022-11-10T17:09:06.011Z,43.20
2022-11-10T17:11:51.286Z,43.30
2022-11-10T17:14:36.819Z,43.30
2022-11-10T17:17:23.117Z,43.40
2022-11-10T17:20:11.331Z,43.60
2022-11-10T17:22:56.841Z,43.70
2022-11-10T17:25:43.163Z,44.30
2022-11-10T17:28:28.468Z,43.90
2022-11-10T17:31:15.744Z,44.00
2022-11-10T17:34:00.831Z,44.40
2022-11-10T17:36:46.247Z,44.20
2022-11-10T17:39:32.813Z,44.50
2022-11-10T17:42:18.225Z,44.50
2022-11-10T17:45:03.792Z,44.40
2022-11-10T17:47:49.776Z,44.50
2022-11-10T17:50:36.816Z,44.60
2022-11-10T17:53:28.330Z,44.60
2022-11-10T17:56:14.047Z,44.90
2022-11-10T17:58:59.546Z,44.80
2022-11-10T18:01:44.799Z,44.70
2022-11-10T18:04:30.569Z,45.00
2022-11-10T18:07:16.041Z,44.90
2022-11-10T18:10:01.293Z,45.00
2022-11-10T18:12:46.641Z,45.20
2022-11-10T18:15:32.049Z,45.20
2022-11-10T18:18:18.045Z,45.40
2022-11-10T18:21:04.960Z,45.40
2022-11-10T18:23:50.447Z,45.50
2022-11-10T18:26:35.936Z,45.60
2022-11-10T18:29:21.497Z,46.10
2022-11-10T18:32:06.937Z,45.80
2022-11-10T18:34:52.382Z,45.80
2022-11-10T18:37:39.207Z,45.90
2022-11-10T18:40:24.835Z,46.00
2022-11-10T18:43:10.055Z,46.10
2022-11-10T18:45:55.363Z,46.20
2022-11-10T18:48:41.176Z,46.30
2022-11-10T18:51:26.442Z,46.30
2022-11-10T18:54:13.025Z,46.30
2022-11-10T18:56:58.527Z,46.30
2022-11-10T18:59:43.960Z,46.30
2022-11-10T19:02:29.331Z,46.50
2022-11-10T19:05:14.783Z,46.50
2022-11-10T19:08:00.120Z,46.60
2022-11-10T19:10:45.481Z,46.60
2022-11-10T19:13:30.916Z,46.60
2022-11-10T19:16:18.356Z,46.70
2022-11-10T19:19:03.603Z,46.80
2022-11-10T19:21:48.955Z,46.90
2022-11-10T19:24:53.641Z,46.80
2022-11-10T19:27:40.191Z,47.00
2022-11-10T19:30:25.827Z,47.00
2022-11-10T19:33:11.997Z,47.20
2022-11-10T19:36:08.897Z,47.20
2022-11-10T19:38:55.360Z,48.00
2022-11-10T19:41:40.625Z,47.30
2022-11-10T19:44:25.999Z,47.40
2022-11-10T19:47:11.677Z,47.60
2022-11-10T19:49:56.831Z,47.60
2022-11-10T19:52:42.049Z,47.80
2022-11-10T19:55:27.358Z,47.80
2022-11-10T19:58:12.749Z,47.90
2022-11-10T20:01:00.098Z,48.00
2022-11-10T20:03:46.027Z,48.00
2022-11-10T20:06:31.110Z,48.10
2022-11-10T20:09:16.444Z,48.10
2022-11-10T20:12:01.741Z,48.20
2022-11-10T20:14:47.245Z,48.30
2022-11-10T20:17:32.348Z,48.40
2022-11-10T20:20:18.115Z,48.40
2022-11-10T20:23:05.676Z,48.40
2022-11-10T20:26:05.599Z,48.50
2022-11-10T20:28:51.139Z,48.90
2022-11-10T20:31:38.535Z,48.50
2022-11-10T20:34:23.984Z,48.60
2022-11-10T20:37:09.275Z,48.60
2022-11-10T20:39:54.595Z,48.70
2022-11-10T20:42:42.824Z,48.70
2022-11-10T20:45:28.294Z,48.90
2022-11-10T20:48:13.848Z,49.00
2022-11-10T20:50:59.714Z,49.00
2022-11-10T20:53:45.860Z,49.20
2022-11-10T20:56:31.487Z,49.20
2022-11-10T20:59:16.933Z,49.20
2022-11-10T21:02:02.436Z,49.20
2022-11-10T21:04:48.128Z,49.30
2022-11-10T21:07:33.358Z,49.30
2022-11-10T21:10:18.859Z,49.40
2022-11-10T21:13:04.218Z,49.40
2022-11-10T21:15:54.916Z,49.40
2022-11-10T21:18:40.194Z,49.40
2022-11-10T21:21:34.024Z,49.20
2022-11-10T21:24:20.268Z,49.30
2022-11-10T21:27:05.961Z,49.20
2022-11-10T21:29:51.044Z,49.30
2022-11-10T21:32:36.443Z,49.30
2022-11-10T21:35:22.313Z,49.20
2022-11-10T21:38:07.491Z,49.40
2022-11-10T21:40:53.047Z,49.40
2022-11-10T21:43:41.239Z,49.50
2022-11-10T21:46:26.292Z,49.50
2022-11-10T21:49:11.953Z,49.50
2022-11-10T21:51:57.020Z,49.50
2022-11-10T21:54:42.427Z,49.50
2022-11-10T21:57:27.896Z,49.60
2022-11-10T22:00:14.108Z,49.60
2022-11-10T22:03:00.211Z,49.70
2022-11-10T22:05:45.436Z,49.70
2022-11-10T22:08:30.905Z,49.70
2022-11-10T22:11:37.528Z,49.80
2022-11-10T22:14:41.492Z,49.90
2022-11-10T22:17:45.460Z,49.90
2022-11-10T22:20:30.807Z,49.80
2022-11-10T22:23:16.346Z,49.80
2022-11-10T22:26:01.716Z,49.90
2022-11-10T22:28:47.317Z,49.90
2022-11-10T22:31:33.124Z,50.00
2022-11-10T22:34:18.740Z,50.00
2022-11-10T22:37:04.028Z,50.00
2022-11-10T22:40:07.798Z,50.00
2022-11-10T22:43:11.667Z,50.10
2022-11-10T22:45:56.947Z,50.00
2022-11-10T22:48:42.415Z,50.00
2022-11-10T22:51:29.551Z,50.10
2022-11-10T22:54:19.938Z,50.10
2022-11-10T22:57:05.313Z,50.30
2022-11-10T22:59:50.648Z,50.10
2022-11-10T23:02:37.231Z,50.20
2022-11-10T23:05:23.124Z,50.40
2022-11-10T23:08:08.360Z,50.30
2022-11-10T23:11:08.503Z,50.30
2022-11-10T23:13:54.016Z,50.60
2022-11-10T23:16:39.321Z,50.30
2022-11-10T23:19:24.498Z,50.40
2022-11-10T23:22:09.817Z,50.40
2022-11-10T23:24:57.286Z,50.40
2022-11-10T23:27:42.450Z,50.50
2022-11-10T23:30:27.811Z,50.50
2022-11-10T23:33:13.081Z,50.60
2022-11-10T23:35:58.380Z,50.50
2022-11-10T23:38:44.592Z,50.60
2022-11-10T23:41:30.600Z,50.60
2022-11-10T23:44:16.211Z,50.70
2022-11-10T23:47:01.764Z,50.60
2022-11-10T23:49:47.454Z,50.60
2022-11-10T23:52:32.617Z,50.70
2022-11-10T23:55:18.119Z,50.70
2022-11-10T23:58:04.172Z,50.70
